Time;durP1;ratioP1;P1;durP2;ratioP2;P2;SDS_P1;SDS_P2;PMS_P1;PMS_P2;Temp;Humidity;BMP_temperature;BMP_pressure;BME280_temperature;BME280_humidity;BME280_pressure;Samples;Min_cycle;Max_cycle;Signal;HPM_P1;HPM_P2
2024/04/17 00:01:21;;;;;;;10.80;1.73;;;7.20;99.90;;;;;;5496422;26;20009;-70
2024/04/17 00:03:46;;;;;;;8.73;1.75;;;7.30;99.90;;;;;;5495819;26;20070;-71
2024/04/17 00:06:12;;;;;;;6.20;1.58;;;7.30;99.90;;;;;;5496409;26;20022;-72
2024/04/17 00:08:38;;;;;;;6.68;1.42;;;7.30;99.90;;;;;;5493704;26;20010;-71
2024/04/17 00:11:04;;;;;;;9.75;1.83;;;7.30;99.90;;;;;;5496382;26;19998;-72
2024/04/17 00:13:31;;;;;;;6.82;1.50;;;7.30;99.90;;;;;;5495161;26;19998;-70
2024/04/17 00:16:00;;;;;;;9.70;1.80;;;7.20;99.90;;;;;;5496624;26;20002;-71
2024/04/17 00:18:26;;;;;;;4.20;1.30;;;7.30;99.90;;;;;;5495658;26;20006;-70
2024/04/17 00:20:51;;;;;;;9.48;2.08;;;7.20;99.90;;;;;;5495090;26;19998;-70
2024/04/17 00:23:17;;;;;;;9.82;1.58;;;7.20;99.90;;;;;;5496455;26;20002;-69
2024/04/17 00:25:43;;;;;;;6.80;1.65;;;7.10;99.90;;;;;;5494842;26;20006;-72
2024/04/17 00:28:09;;;;;;;7.43;1.83;;;7.10;99.90;;;;;;5496570;26;20439;-70
2024/04/17 00:30:34;;;;;;;6.97;1.50;;;7.10;99.90;;;;;;5494468;26;20013;-70
2024/04/17 00:33:00;;;;;;;6.72;2.03;;;7.10;99.90;;;;;;5494079;26;20033;-71
2024/04/17 00:35:26;;;;;;;6.53;1.90;;;7.10;99.90;;;;;;5494411;26;20008;-70
2024/04/17 00:37:51;;;;;;;7.63;1.65;;;7.10;99.90;;;;;;5496300;26;20371;-70
2024/04/17 00:40:17;;;;;;;9.52;1.52;;;7.00;99.90;;;;;;5496645;26;20039;-71
2024/04/17 00:42:42;;;;;;;8.50;1.98;;;7.00;99.90;;;;;;5499928;26;20017;-70
2024/04/17 00:45:08;;;;;;;9.65;1.58;;;7.00;99.90;;;;;;5498496;26;20002;-71
2024/04/17 00:47:33;;;;;;;16.65;2.40;;;6.90;99.90;;;;;;5499783;26;19998;-71
2024/04/17 00:49:59;;;;;;;7.00;1.50;;;6.90;99.90;;;;;;5499108;26;20008;-70
2024/04/17 00:52:26;;;;;;;11.75;2.10;;;6.90;99.90;;;;;;5498901;26;20070;-71
2024/04/17 00:54:52;;;;;;;10.77;2.33;;;6.80;99.90;;;;;;5498788;26;20002;-70
2024/04/17 00:57:19;;;;;;;12.30;2.08;;;6.80;99.90;;;;;;5498224;26;20009;-70
2024/04/17 00:59:45;;;;;;;13.52;2.40;;;6.80;99.90;;;;;;5496967;26;20009;-71
2024/04/17 01:02:12;;;;;;;13.27;1.98;;;6.70;99.90;;;;;;5499469;26;19998;-71
2024/04/17 01:04:39;;;;;;;12.30;1.80;;;6.70;99.90;;;;;;5498768;26;20042;-71
2024/04/17 01:07:04;;;;;;;10.13;1.63;;;6.70;99.90;;;;;;5495738;26;19994;-71
2024/04/17 01:09:30;;;;;;;14.80;2.13;;;6.60;99.90;;;;;;5498772;26;20008;-71
2024/04/17 01:11:55;;;;;;;8.85;2.22;;;6.60;99.90;;;;;;5498605;26;20048;-71
2024/04/17 01:14:21;;;;;;;7.53;1.70;;;6.60;99.90;;;;;;5498909;26;20002;-71
2024/04/17 01:16:47;;;;;;;12.18;2.13;;;6.40;99.90;;;;;;5498035;26;20009;-71
2024/04/17 01:19:13;;;;;;;14.25;2.22;;;6.50;99.90;;;;;;5499141;26;19999;-71
2024/04/17 01:21:39;;;;;;;8.85;2.33;;;6.50;99.90;;;;;;5498322;26;20008;-70
2024/04/17 01:24:05;;;;;;;11.13;2.03;;;6.40;99.90;;;;;;5499220;26;19998;-72
2024/04/17 01:26:30;;;;;;;10.00;1.90;;;6.40;99.90;;;;;;5497847;26;20012;-71
2024/04/17 01:28:56;;;;;;;9.93;1.92;;;6.40;99.90;;;;;;5498933;26;20013;-71
2024/04/17 01:31:21;;;;;;;8.95;2.17;;;6.40;99.90;;;;;;5498740;26;19998;-70
2024/04/17 01:33:47;;;;;;;9.93;1.75;;;6.30;99.90;;;;;;5498871;26;19994;-71
2024/04/17 01:36:13;;;;;;;15.38;2.03;;;6.30;99.90;;;;;;5497417;26;20009;-70
2024/04/17 01:38:39;;;;;;;7.72;1.52;;;6.30;99.90;;;;;;5499242;26;20056;-70
2024/04/17 01:41:06;;;;;;;11.55;1.80;;;6.20;99.90;;;;;;5495632;26;19998;-71
2024/04/17 01:43:31;;;;;;;9.70;2.00;;;6.20;99.90;;;;;;5497223;26;20006;-70
2024/04/17 01:45:58;;;;;;;8.88;1.60;;;6.10;99.90;;;;;;5498090;26;20036;-70
2024/04/17 01:48:23;;;;;;;12.13;2.55;;;6.10;99.90;;;;;;5497898;26;20002;-71
2024/04/17 01:50:50;;;;;;;12.63;2.50;;;6.10;99.90;;;;;;5497238;26;20008;-72
2024/04/17 01:53:16;;;;;;;9.13;1.90;;;6.10;99.90;;;;;;5498915;26;19998;-70
2024/04/17 01:55:42;;;;;;;11.85;1.90;;;6.10;99.90;;;;;;5497187;26;20005;-71
2024/04/17 01:58:08;;;;;;;11.55;2.30;;;6.10;99.90;;;;;;5496359;26;20061;-71
2024/04/17 02:00:37;;;;;;;14.60;2.15;;;6.00;99.90;;;;;;5493769;26;20006;-70
2024/04/17 02:03:03;;;;;;;6.82;1.80;;;6.00;99.90;;;;;;5492943;26;19994;-71
2024/04/17 02:05:28;;;;;;;13.85;2.50;;;6.00;99.90;;;;;;5489033;26;20043;-71
2024/04/17 02:07:54;;;;;;;8.20;1.90;;;6.00;99.90;;;;;;5487294;26;20392;-70
2024/04/17 02:10:34;;;;;;;12.63;2.05;;;5.90;99.90;;;;;;5493005;26;20010;-71
2024/04/17 02:12:59;;;;;;;11.15;1.77;;;5.90;99.90;;;;;;5494913;26;20025;-69
2024/04/17 02:15:25;;;;;;;4.93;1.80;;;5.90;99.90;;;;;;5495763;26;20018;-70
2024/04/17 02:17:50;;;;;;;9.45;2.30;;;5.90;99.90;;;;;;5495236;26;20006;-70
2024/04/17 02:20:16;;;;;;;7.78;1.92;;;5.90;99.90;;;;;;5493414;26;20020;-71
2024/04/17 02:22:41;;;;;;;9.15;2.45;;;5.80;99.90;;;;;;5492002;26;20021;-71
2024/04/17 02:25:07;;;;;;;13.00;2.10;;;5.80;99.90;;;;;;5491240;26;20001;-71
2024/04/17 02:27:33;;;;;;;7.10;2.13;;;5.80;99.90;;;;;;5497521;26;20002;-69
2024/04/17 02:29:58;;;;;;;8.13;2.08;;;5.80;99.90;;;;;;5494427;26;20013;-70
2024/04/17 02:32:24;;;;;;;5.82;1.75;;;5.80;99.90;;;;;;5496169;26;20002;-70
2024/04/17 02:34:50;;;;;;;8.80;2.22;;;5.70;99.90;;;;;;5493484;26;20002;-70
2024/04/17 02:37:15;;;;;;;8.80;1.92;;;5.70;99.90;;;;;;5495205;26;20014;-70
2024/04/17 02:39:41;;;;;;;8.07;1.90;;;5.80;99.90;;;;;;5493411;26;20055;-70
2024/04/17 02:42:06;;;;;;;13.23;2.33;;;5.70;99.90;;;;;;5497304;26;20002;-70
2024/04/17 02:44:32;;;;;;;13.57;2.70;;;5.60;99.90;;;;;;5496291;26;20013;-71
2024/04/17 02:46:57;;;;;;;6.95;2.10;;;5.70;99.90;;;;;;5494344;26;20042;-70
2024/04/17 02:49:23;;;;;;;8.15;2.05;;;5.70;99.90;;;;;;5492740;26;19998;-70
2024/04/17 02:51:50;;;;;;;10.48;1.98;;;5.60;99.90;;;;;;5495571;26;20030;-70
2024/04/17 02:54:17;;;;;;;12.48;2.47;;;5.60;99.90;;;;;;5497186;26;20006;-74
2024/04/17 02:56:43;;;;;;;12.70;2.33;;;5.60;99.90;;;;;;5492934;26;20542;-70
2024/04/17 02:59:08;;;;;;;7.57;2.10;;;5.50;99.90;;;;;;5495135;26;20011;-70
2024/04/17 03:01:34;;;;;;;13.10;2.22;;;5.50;99.90;;;;;;5495134;26;19998;-68
2024/04/17 03:03:59;;;;;;;9.90;2.10;;;5.50;99.90;;;;;;5493750;26;19998;-69
2024/04/17 03:06:25;;;;;;;10.40;1.95;;;5.50;99.90;;;;;;5496855;26;20434;-71
2024/04/17 03:08:51;;;;;;;15.77;2.33;;;5.50;99.90;;;;;;5494611;26;20009;-73
2024/04/17 03:11:17;;;;;;;15.63;2.15;;;5.40;99.90;;;;;;5493646;26;19998;-70
2024/04/17 03:13:43;;;;;;;11.13;2.10;;;5.40;99.90;;;;;;5494612;26;20000;-71
2024/04/17 03:16:08;;;;;;;15.00;1.95;;;5.50;99.90;;;;;;5493662;26;20006;-71
2024/04/17 03:18:34;;;;;;;6.80;2.13;;;5.40;99.90;;;;;;5496663;26;20441;-71
2024/04/17 03:21:00;;;;;;;9.93;2.58;;;5.30;99.90;;;;;;5493641;26;20319;-71
2024/04/17 03:23:25;;;;;;;14.52;2.83;;;5.30;99.90;;;;;;5494622;26;20526;-69
2024/04/17 03:25:59;;;;;;;8.30;1.92;;;5.30;99.90;;;;;;5495423;26;19998;-70
2024/04/17 03:28:25;;;;;;;7.22;2.05;;;5.30;99.90;;;;;;5493090;26;20002;-71
2024/04/17 03:30:51;;;;;;;6.13;1.90;;;5.30;99.90;;;;;;5495679;26;20002;-71
2024/04/17 03:33:17;;;;;;;9.82;2.30;;;5.30;99.90;;;;;;5492248;26;20002;-70
2024/04/17 03:35:53;;;;;;;11.57;2.13;;;5.40;99.90;;;;;;5493356;26;20002;-71
2024/04/17 03:38:18;;;;;;;8.45;2.25;;;5.20;99.90;;;;;;5492988;26;20009;-71
2024/04/17 03:40:44;;;;;;;10.90;2.63;;;5.20;99.90;;;;;;5491215;26;19999;-69
2024/04/17 03:43:09;;;;;;;12.48;2.45;;;5.20;99.90;;;;;;5494674;26;20009;-70
2024/04/17 03:45:35;;;;;;;12.60;2.25;;;5.10;99.90;;;;;;5493841;26;19998;-71
2024/04/17 03:48:00;;;;;;;6.47;2.10;;;5.10;99.90;;;;;;5492166;26;20006;-70
2024/04/17 03:50:26;;;;;;;17.20;2.83;;;5.10;99.90;;;;;;5492882;26;20378;-70
2024/04/17 03:52:52;;;;;;;11.43;2.22;;;5.10;99.90;;;;;;5491889;26;20051;-69
2024/04/17 03:55:17;;;;;;;12.43;2.33;;;5.10;99.90;;;;;;5494597;26;20014;-71
2024/04/17 03:57:43;;;;;;;10.10;2.10;;;5.10;99.90;;;;;;5491277;26;20018;-69
2024/04/17 04:00:09;;;;;;;19.17;3.13;;;5.00;99.90;;;;;;5487374;26;20006;-71
2024/04/17 04:02:34;;;;;;;11.30;2.70;;;5.00;99.90;;;;;;5495177;26;19998;-72
2024/04/17 04:05:00;;;;;;;12.88;2.88;;;5.00;99.90;;;;;;5492769;26;20159;-70
2024/04/17 04:07:26;;;;;;;14.40;2.70;;;5.10;99.90;;;;;;5488452;26;19995;-71
2024/04/17 04:09:51;;;;;;;9.95;2.60;;;5.00;99.90;;;;;;5494645;26;20004;-71
2024/04/17 04:12:17;;;;;;;11.82;2.92;;;5.00;99.90;;;;;;5496340;26;20070;-71
2024/04/17 04:14:42;;;;;;;8.40;2.40;;;5.00;99.90;;;;;;5499215;26;20043;-71
2024/04/17 04:17:08;;;;;;;13.40;2.40;;;5.00;99.90;;;;;;5496629;26;20013;-72
2024/04/17 04:19:34;;;;;;;11.13;2.53;;;4.90;99.90;;;;;;5500144;26;20013;-71
2024/04/17 04:21:59;;;;;;;13.02;2.80;;;5.00;99.90;;;;;;5498801;26;20012;-70
2024/04/17 04:24:25;;;;;;;11.18;2.50;;;4.90;99.90;;;;;;5498592;26;19998;-71
2024/04/17 04:26:50;;;;;;;11.82;2.45;;;4.90;99.90;;;;;;5498649;26;20006;-71
2024/04/17 04:29:16;;;;;;;14.82;3.03;;;4.90;99.90;;;;;;5498758;26;20009;-71
2024/04/17 04:31:41;;;;;;;7.75;2.72;;;4.90;99.90;;;;;;5498879;26;20008;-71
2024/04/17 04:34:07;;;;;;;15.25;2.50;;;4.90;99.90;;;;;;5499120;26;20006;-71
2024/04/17 04:36:32;;;;;;;10.85;2.55;;;5.00;99.90;;;;;;5496426;26;20362;-71
2024/04/17 04:38:58;;;;;;;10.32;2.42;;;5.00;99.90;;;;;;5496816;26;19994;-71
2024/04/17 04:41:23;;;;;;;8.60;2.70;;;4.90;99.90;;;;;;5497971;26;20002;-71
2024/04/17 04:43:49;;;;;;;12.57;2.60;;;4.90;99.90;;;;;;5498690;26;19998;-71
2024/04/17 04:46:14;;;;;;;11.13;2.97;;;4.90;99.90;;;;;;5498870;26;20404;-71
2024/04/17 04:48:40;;;;;;;8.65;2.33;;;4.90;99.90;;;;;;5499029;26;20017;-71
2024/04/17 04:51:06;;;;;;;7.95;2.65;;;4.90;99.90;;;;;;5498881;26;20002;-71
2024/04/17 04:53:31;;;;;;;9.82;3.22;;;4.90;99.90;;;;;;5498177;26;20089;-71
2024/04/17 04:55:58;;;;;;;9.95;3.10;;;5.00;99.90;;;;;;5499073;26;20694;-71
2024/04/17 04:58:24;;;;;;;14.50;3.10;;;4.90;99.90;;;;;;5498677;26;20038;-71
2024/04/17 05:00:51;;;;;;;15.13;3.20;;;5.00;99.90;;;;;;5498871;26;20111;-72
2024/04/17 05:03:16;;;;;;;12.95;3.15;;;5.00;99.90;;;;;;5498921;26;20009;-72
2024/04/17 05:05:42;;;;;;;15.27;3.05;;;5.00;99.90;;;;;;5498460;26;19994;-71
2024/04/17 05:08:08;;;;;;;14.68;2.85;;;5.00;99.90;;;;;;5498864;26;20006;-71
2024/04/17 05:10:34;;;;;;;17.75;2.95;;;5.10;99.90;;;;;;5498658;26;20035;-71
2024/04/17 05:13:00;;;;;;;15.82;3.58;;;5.10;99.90;;;;;;5498564;26;20051;-71
2024/04/17 05:15:25;;;;;;;11.32;2.60;;;5.10;99.90;;;;;;5498584;26;20031;-71
2024/04/17 05:17:51;;;;;;;13.50;3.35;;;5.30;99.90;;;;;;5498816;26;20422;-71
2024/04/17 05:20:16;;;;;;;10.50;2.67;;;5.30;99.90;;;;;;5497510;26;19994;-70
2024/04/17 05:22:42;;;;;;;14.10;3.35;;;5.20;99.90;;;;;;5498448;26;20330;-71
2024/04/17 05:25:07;;;;;;;12.73;3.20;;;5.30;99.90;;;;;;5498708;26;20018;-71
2024/04/17 05:27:33;;;;;;;12.57;2.90;;;5.30;99.90;;;;;;5497715;26;20009;-72
2024/04/17 05:29:59;;;;;;;11.93;2.58;;;5.40;99.90;;;;;;5496718;26;20005;-71
2024/04/17 05:32:24;;;;;;;26.58;3.60;;;5.30;99.90;;;;;;5498122;26;20048;-73
2024/04/17 05:34:50;;;;;;;14.98;2.65;;;5.30;99.90;;;;;;5498045;26;20001;-71
2024/04/17 05:37:16;;;;;;;10.20;2.72;;;5.40;99.90;;;;;;5498788;26;20004;-71
2024/04/17 05:39:41;;;;;;;19.52;3.47;;;5.50;99.90;;;;;;5498074;26;20043;-71
2024/04/17 05:42:07;;;;;;;11.20;3.05;;;5.50;99.90;;;;;;5498381;26;20006;-71
2024/04/17 05:44:32;;;;;;;13.57;3.20;;;5.50;99.90;;;;;;5497187;26;20678;-71
2024/04/17 05:46:58;;;;;;;13.15;3.13;;;5.60;99.90;;;;;;5498503;26;20044;-72
2024/04/17 05:49:24;;;;;;;16.08;2.90;;;5.60;99.90;;;;;;5495463;26;20003;-71
2024/04/17 05:51:49;;;;;;;14.85;3.67;;;5.70;99.90;;;;;;5497368;26;20051;-72
2024/04/17 05:54:15;;;;;;;14.05;3.83;;;5.80;99.90;;;;;;5493093;26;19998;-72
2024/04/17 05:56:41;;;;;;;15.88;3.15;;;5.70;99.90;;;;;;5496010;26;20013;-72
2024/04/17 05:59:06;;;;;;;11.68;3.20;;;5.80;99.90;;;;;;5496491;26;19994;-71
2024/04/17 06:01:32;;;;;;;13.30;3.60;;;5.90;99.90;;;;;;5490671;26;19994;-71
2024/04/17 06:03:57;;;;;;;13.55;3.78;;;5.90;99.90;;;;;;5498028;26;19998;-72
2024/04/17 06:06:23;;;;;;;10.30;3.53;;;6.00;99.90;;;;;;5498593;26;19994;-71
2024/04/17 06:08:48;;;;;;;13.48;3.85;;;6.10;99.90;;;;;;5494797;26;20005;-72
2024/04/17 06:11:14;;;;;;;13.45;2.85;;;6.10;99.90;;;;;;5492448;26;20439;-72
2024/04/17 06:13:40;;;;;;;14.15;3.35;;;6.10;99.90;;;;;;5491538;26;20009;-71
2024/04/17 06:16:06;;;;;;;15.05;3.53;;;6.20;99.90;;;;;;5493231;26;20012;-71
2024/04/17 06:18:31;;;;;;;18.33;3.53;;;6.30;99.90;;;;;;5495473;26;20073;-72
2024/04/17 06:20:57;;;;;;;11.02;2.85;;;6.30;99.90;;;;;;5494507;26;20565;-71
2024/04/17 06:23:23;;;;;;;13.55;3.10;;;6.40;99.90;;;;;;5497339;26;20050;-72
2024/04/17 06:25:48;;;;;;;19.55;3.88;;;6.50;99.90;;;;;;5497441;26;20017;-72
2024/04/17 06:28:15;;;;;;;8.75;3.08;;;6.60;99.90;;;;;;5498168;26;19994;-72
2024/04/17 06:30:40;;;;;;;16.73;3.85;;;6.70;99.90;;;;;;5498093;26;20454;-72
2024/04/17 06:33:07;;;;;;;13.23;3.38;;;6.80;99.90;;;;;;5498593;26;20028;-72
2024/04/17 06:35:33;;;;;;;12.63;3.15;;;7.00;99.90;;;;;;5496593;26;19998;-71
2024/04/17 06:37:58;;;;;;;19.00;3.50;;;7.10;99.90;;;;;;5497744;26;20002;-72
2024/04/17 06:40:24;;;;;;;10.60;2.83;;;7.30;99.90;;;;;;5496616;26;20009;-71
2024/04/17 06:42:50;;;;;;;14.23;3.00;;;7.40;99.90;;;;;;5496999;26;19998;-72
2024/04/17 06:45:16;;;;;;;13.48;3.33;;;7.40;99.90;;;;;;5496524;26;19994;-71
2024/04/17 06:47:43;;;;;;;14.32;3.55;;;7.50;99.90;;;;;;5496249;26;19998;-72
2024/04/17 06:50:08;;;;;;;14.30;2.90;;;7.60;99.90;;;;;;5497556;26;20006;-72
2024/04/17 06:52:34;;;;;;;12.95;3.00;;;7.60;99.90;;;;;;5495040;26;20010;-71
2024/04/17 06:54:59;;;;;;;11.32;2.95;;;7.70;99.90;;;;;;5497644;26;19994;-72
2024/04/17 06:57:25;;;;;;;12.85;2.88;;;7.80;99.90;;;;;;5497414;26;20010;-71
2024/04/17 06:59:50;;;;;;;10.50;2.42;;;7.90;99.90;;;;;;5496799;26;19998;-72
2024/04/17 07:02:16;;;;;;;11.68;2.25;;;8.00;99.90;;;;;;5496958;26;20012;-71
2024/04/17 07:04:42;;;;;;;9.23;2.28;;;8.00;99.90;;;;;;5496609;26;19998;-71
2024/04/17 07:07:08;;;;;;;15.98;2.80;;;8.10;99.90;;;;;;5497668;26;19998;-71
2024/04/17 07:09:33;;;;;;;11.68;2.47;;;8.20;99.90;;;;;;5497288;26;19994;-71
2024/04/17 07:11:59;;;;;;;6.57;1.80;;;8.30;99.90;;;;;;5496056;26;19994;-71
2024/04/17 07:14:24;;;;;;;10.25;2.38;;;8.40;99.90;;;;;;5497527;26;20006;-71
2024/04/17 07:16:50;;;;;;;7.85;2.17;;;8.50;99.90;;;;;;5496919;26;20392;-72
2024/04/17 07:19:15;;;;;;;10.38;2.20;;;8.60;99.90;;;;;;5494091;26;20006;-71
2024/04/17 07:21:41;;;;;;;6.60;2.00;;;8.80;99.90;;;;;;5497172;26;20006;-71
2024/04/17 07:24:06;;;;;;;9.32;2.20;;;8.90;99.90;;;;;;5487697;26;20037;-71
2024/04/17 07:26:32;;;;;;;9.13;1.75;;;9.10;99.90;;;;;;5492226;26;20006;-71
2024/04/17 07:28:57;;;;;;;12.68;2.60;;;9.20;99.90;;;;;;5494196;26;19994;-70
2024/04/17 07:31:23;;;;;;;14.43;2.55;;;9.40;99.90;;;;;;5496667;26;20008;-70
2024/04/17 07:33:49;;;;;;;17.10;2.58;;;9.50;99.90;;;;;;5485498;26;20013;-70
2024/04/17 07:36:15;;;;;;;8.05;1.70;;;9.60;99.90;;;;;;5478185;26;20387;-70
2024/04/17 07:38:40;;;;;;;7.13;1.80;;;9.80;99.90;;;;;;5495171;26;19998;-69
2024/04/17 07:41:06;;;;;;;9.80;1.58;;;10.00;99.90;;;;;;5493534;26;19994;-69
2024/04/17 07:43:32;;;;;;;6.68;1.67;;;10.20;99.90;;;;;;5494826;26;20477;-69
2024/04/17 07:45:58;;;;;;;9.48;2.33;;;10.40;99.90;;;;;;5495000;26;20002;-70
2024/04/17 07:48:24;;;;;;;5.75;1.50;;;10.70;99.90;;;;;;5492036;26;19998;-69
2024/04/17 07:50:49;;;;;;;5.13;1.65;;;10.90;99.90;;;;;;5499511;26;20005;-70
2024/04/17 07:53:15;;;;;;;8.82;2.03;;;11.20;99.90;;;;;;5499038;26;20006;-69
2024/04/17 07:55:41;;;;;;;11.32;1.90;;;11.30;99.90;;;;;;5496290;26;20013;-70
2024/04/17 07:58:06;;;;;;;10.05;1.90;;;11.40;99.90;;;;;;5497729;26;20002;-71
2024/04/17 08:00:32;;;;;;;7.43;1.63;;;11.50;99.90;;;;;;5494209;26;20006;-71
2024/04/17 08:02:58;;;;;;;6.78;1.70;;;11.50;99.90;;;;;;5493443;26;19998;-70
2024/04/17 08:05:24;;;;;;;5.72;1.77;;;11.50;99.90;;;;;;5495153;26;20511;-70
2024/04/17 08:07:49;;;;;;;8.73;1.77;;;11.40;99.90;;;;;;5498975;26;20014;-70
2024/04/17 08:10:16;;;;;;;7.97;3.10;;;11.30;99.90;;;;;;5496194;26;20010;-69
2024/04/17 08:12:41;;;;;;;9.60;2.15;;;11.00;99.90;;;;;;5496418;26;20014;-70
2024/04/17 08:15:15;;;;;;;10.13;2.40;;;10.50;99.90;;;;;;5497203;26;20022;-70
2024/04/17 08:17:43;;;;;;;9.68;2.28;;;10.00;99.90;;;;;;5493356;26;20034;-70
2024/04/17 08:20:09;;;;;;;9.93;3.13;;;9.50;99.90;;;;;;5499535;26;20006;-70
2024/04/17 08:22:35;;;;;;;11.15;2.15;;;8.90;99.90;;;;;;5494819;26;20043;-69
2024/04/17 08:25:01;;;;;;;12.65;2.63;;;8.30;99.90;;;;;;5491728;26;20001;-70
2024/04/17 08:27:26;;;;;;;6.60;1.60;;;7.90;99.90;;;;;;5499407;26;20002;-70
2024/04/17 08:29:52;;;;;;;3.47;1.65;;;7.50;99.90;;;;;;5489120;26;20000;-72
2024/04/17 08:32:17;;;;;;;10.75;2.60;;;7.20;99.90;;;;;;5499414;26;20435;-69
2024/04/17 08:34:43;;;;;;;7.25;2.38;;;7.00;99.90;;;;;;5492560;26;20481;-71
2024/04/17 08:37:08;;;;;;;7.97;2.97;;;6.90;99.90;;;;;;5490057;26;20002;-70
2024/04/17 08:39:34;;;;;;;10.75;3.38;;;6.70;99.90;;;;;;5485751;26;20006;-70
2024/04/17 08:42:05;;;;;;;10.27;3.33;;;6.70;99.90;;;;;;5492849;26;20005;-70
2024/04/17 08:44:34;;;;;;;10.75;3.75;;;6.70;99.90;;;;;;5495601;26;20010;-69
2024/04/17 08:47:02;;;;;;;6.90;3.50;;;6.70;99.90;;;;;;5492201;26;20421;-70
2024/04/17 08:49:30;;;;;;;11.52;4.00;;;6.60;99.90;;;;;;5494516;26;20080;-70
2024/04/17 08:51:57;;;;;;;7.53;3.40;;;6.60;99.90;;;;;;5489719;26;19999;-70
2024/04/17 08:54:23;;;;;;;7.78;3.10;;;6.50;99.90;;;;;;5491291;26;20132;-70
2024/04/17 08:56:48;;;;;;;7.55;3.92;;;6.50;99.90;;;;;;5491949;26;20017;-70
2024/04/17 08:59:14;;;;;;;6.68;2.30;;;6.30;99.90;;;;;;5496546;26;20010;-72
2024/04/17 09:01:41;;;;;;;5.63;2.13;;;6.20;99.90;;;;;;5494978;26;20070;-71
2024/04/17 09:04:07;;;;;;;3.92;1.75;;;6.10;99.90;;;;;;5496174;26;19998;-71
2024/04/17 09:06:37;;;;;;;4.22;1.92;;;6.10;99.90;;;;;;5487670;26;20047;-70
2024/04/17 09:09:04;;;;;;;6.35;2.53;;;5.90;99.90;;;;;;5486405;26;20522;-70
2024/04/17 09:11:32;;;;;;;6.55;2.50;;;5.90;99.90;;;;;;5489758;26;19994;-70
2024/04/17 09:13:58;;;;;;;7.53;2.58;;;5.90;99.90;;;;;;5497453;26;20022;-70
2024/04/17 09:16:23;;;;;;;5.32;2.20;;;5.90;99.90;;;;;;5495989;26;20021;-71
2024/04/17 09:18:49;;;;;;;4.72;1.90;;;5.90;99.90;;;;;;5495443;26;20360;-70
2024/04/17 09:21:15;;;;;;;4.53;2.05;;;6.00;99.90;;;;;;5498134;26;20051;-70
2024/04/17 09:23:40;;;;;;;5.63;1.80;;;6.00;99.90;;;;;;5494416;26;20006;-71
2024/04/17 09:26:17;;;;;;;5.60;1.60;;;6.00;99.90;;;;;;5498062;26;19991;-71
2024/04/17 09:28:43;;;;;;;5.38;1.88;;;6.00;99.90;;;;;;5492592;26;20005;-70
2024/04/17 09:31:12;;;;;;;3.65;1.80;;;6.00;99.90;;;;;;5490451;26;20014;-69
2024/04/17 09:33:45;;;;;;;4.10;1.55;;;6.00;99.90;;;;;;5480125;26;20056;-70
2024/04/17 09:36:10;;;;;;;2.95;1.40;;;6.00;99.90;;;;;;5490258;26;20010;-70
2024/04/17 09:38:36;;;;;;;5.55;1.77;;;6.00;99.90;;;;;;5490277;26;19994;-70
2024/04/17 09:41:02;;;;;;;4.10;1.33;;;6.10;99.90;;;;;;5486668;26;20055;-70
2024/04/17 09:43:29;;;;;;;6.15;1.58;;;6.10;99.90;;;;;;5486991;26;20058;-70
2024/04/17 09:46:06;;;;;;;3.30;1.45;;;6.20;99.90;;;;;;5488545;26;19997;-70
2024/04/17 09:48:36;;;;;;;3.85;1.30;;;6.20;99.90;;;;;;5490486;26;20094;-70
2024/04/17 09:51:06;;;;;;;4.13;1.70;;;6.30;99.90;;;;;;5492688;26;19994;-70
2024/04/17 09:53:49;;;;;;;4.05;1.80;;;6.40;99.90;;;;;;5490742;26;20356;-70
2024/04/17 09:56:16;;;;;;;7.03;2.40;;;6.50;99.90;;;;;;5492516;26;19998;-70
2024/04/17 09:58:46;;;;;;;4.95;1.98;;;6.60;99.90;;;;;;5493277;26;19998;-70
2024/04/17 10:01:13;;;;;;;5.78;1.70;;;6.60;99.90;;;;;;5493138;26;20344;-70
2024/04/17 10:03:41;;;;;;;4.43;1.33;;;6.80;99.90;;;;;;5490851;26;20009;-69
2024/04/17 10:06:08;;;;;;;3.65;1.85;;;6.80;99.90;;;;;;5493326;26;20006;-69
2024/04/17 10:08:36;;;;;;;3.65;1.67;;;6.90;99.90;;;;;;5491264;26;20012;-70
2024/04/17 10:11:03;;;;;;;3.10;1.50;;;6.90;99.90;;;;;;5493181;26;20146;-70
2024/04/17 10:13:31;;;;;;;3.45;1.70;;;7.00;99.90;;;;;;5494708;26;20009;-69
2024/04/17 10:15:57;;;;;;;6.30;1.63;;;7.00;99.90;;;;;;5494029;26;20125;-69
2024/04/17 10:18:23;;;;;;;4.93;1.60;;;7.10;99.90;;;;;;5495044;26;20012;-70
2024/04/17 10:20:51;;;;;;;8.25;1.80;;;7.20;99.90;;;;;;5496856;26;20006;-70
2024/04/17 10:23:17;;;;;;;2.95;1.40;;;7.30;99.90;;;;;;5490001;26;20005;-70
2024/04/17 10:25:54;;;;;;;3.97;1.73;;;7.40;99.90;;;;;;5491326;26;20006;-70
2024/04/17 10:28:21;;;;;;;3.88;1.45;;;7.50;99.90;;;;;;5488245;26;20022;-70
2024/04/17 10:30:51;;;;;;;5.25;1.67;;;7.60;99.90;;;;;;5486905;26;20001;-70
2024/04/17 10:33:30;;;;;;;3.97;1.30;;;7.70;99.90;;;;;;5494768;26;20014;-70
2024/04/17 10:36:04;;;;;;;2.20;1.10;;;7.80;99.90;;;;;;5493119;26;19998;-70
2024/04/17 10:38:30;;;;;;;4.03;1.60;;;7.90;99.90;;;;;;5491008;26;20002;-70
2024/04/17 10:40:57;;;;;;;1.77;1.25;;;8.00;99.90;;;;;;5485140;26;20013;-70
2024/04/17 10:43:24;;;;;;;3.65;1.38;;;8.10;99.90;;;;;;5490738;26;20006;-69
2024/04/17 10:45:56;;;;;;;4.28;1.40;;;8.10;99.90;;;;;;5492196;26;20017;-69
2024/04/17 10:48:23;;;;;;;4.43;1.40;;;8.20;99.90;;;;;;5495150;26;20002;-70
2024/04/17 10:50:49;;;;;;;4.35;1.45;;;8.20;99.90;;;;;;5496219;26;20002;-69
2024/04/17 10:53:16;;;;;;;4.32;1.20;;;8.30;99.90;;;;;;5495410;26;19998;-70
2024/04/17 10:55:42;;;;;;;2.17;1.20;;;8.40;99.90;;;;;;5493491;26;20021;-70
2024/04/17 10:58:12;;;;;;;3.85;1.75;;;8.50;99.90;;;;;;5495506;26;20010;-70
2024/04/17 11:00:37;;;;;;;2.10;1.10;;;8.60;99.90;;;;;;5493600;26;20009;-70
2024/04/17 11:03:03;;;;;;;2.63;1.40;;;8.60;99.90;;;;;;5492692;26;20008;-70
2024/04/17 11:05:30;;;;;;;2.75;1.10;;;8.60;99.90;;;;;;5494896;26;20044;-70
2024/04/17 11:07:56;;;;;;;4.30;0.95;;;8.70;99.90;;;;;;5493913;26;20063;-70
2024/04/17 11:10:22;;;;;;;4.03;1.30;;;8.70;99.90;;;;;;5492564;26;20034;-71
2024/04/17 11:12:48;;;;;;;1.83;1.10;;;8.60;99.90;;;;;;5488399;26;20010;-70
2024/04/17 11:15:14;;;;;;;2.10;0.82;;;8.60;99.90;;;;;;5494757;26;20514;-70
2024/04/17 11:17:40;;;;;;;3.47;1.10;;;8.50;99.90;;;;;;5491433;26;20039;-71
2024/04/17 11:20:08;;;;;;;2.83;1.38;;;8.30;99.90;;;;;;5491929;26;19994;-70
2024/04/17 11:22:37;;;;;;;1.48;1.00;;;8.10;99.90;;;;;;5490082;26;19998;-70
2024/04/17 11:25:04;;;;;;;7.10;1.35;;;7.90;99.90;;;;;;5491899;26;19994;-70
2024/04/17 11:27:30;;;;;;;6.20;1.30;;;7.70;99.90;;;;;;5490991;26;20047;-69
2024/04/17 11:29:57;;;;;;;2.75;1.00;;;7.50;99.90;;;;;;5493855;26;20014;-70
2024/04/17 11:32:24;;;;;;;3.45;1.13;;;7.50;99.90;;;;;;5493088;26;20006;-69
2024/04/17 11:34:50;;;;;;;3.70;1.35;;;7.40;99.90;;;;;;5494017;26;19998;-70
2024/04/17 11:37:15;;;;;;;2.33;0.85;;;7.40;99.90;;;;;;5494641;26;20052;-70
2024/04/17 11:39:41;;;;;;;3.72;1.20;;;7.50;99.90;;;;;;5482166;26;20356;-70
2024/04/17 11:42:09;;;;;;;5.35;1.40;;;7.50;99.90;;;;;;5491270;26;20006;-69
2024/04/17 11:44:37;;;;;;;1.95;1.38;;;7.60;99.90;;;;;;5490341;26;20092;-70
2024/04/17 11:47:04;;;;;;;2.92;1.17;;;7.80;99.90;;;;;;5492169;26;20002;-69
2024/04/17 11:49:29;;;;;;;1.67;1.05;;;8.00;99.90;;;;;;5491260;26;20026;-71
2024/04/17 11:51:55;;;;;;;1.77;1.20;;;8.10;99.90;;;;;;5493184;26;20010;-70
2024/04/17 11:54:21;;;;;;;1.77;0.70;;;8.30;99.90;;;;;;5492640;26;20006;-70
2024/04/17 11:56:46;;;;;;;2.00;0.90;;;8.50;99.90;;;;;;5493116;26;20021;-70
2024/04/17 11:59:12;;;;;;;2.40;0.70;;;8.60;99.90;;;;;;5491631;26;19998;-70
2024/04/17 12:01:37;;;;;;;3.17;0.70;;;8.80;99.90;;;;;;5491495;26;19994;-70
2024/04/17 12:04:03;;;;;;;1.52;0.75;;;8.90;99.90;;;;;;5491806;26;20001;-70
2024/04/17 12:06:28;;;;;;;2.70;0.90;;;9.00;99.90;;;;;;5489661;26;20069;-70
2024/04/17 12:08:54;;;;;;;2.58;0.80;;;9.10;99.90;;;;;;5488980;26;20005;-70
2024/04/17 12:11:19;;;;;;;2.95;1.10;;;9.30;99.90;;;;;;5488373;26;20005;-69
2024/04/17 12:13:45;;;;;;;3.08;0.98;;;9.40;99.90;;;;;;5490668;26;19998;-70
2024/04/17 12:16:11;;;;;;;1.50;0.85;;;9.60;99.90;;;;;;5489185;26;20006;-70
2024/04/17 12:18:37;;;;;;;1.30;0.82;;;9.70;99.90;;;;;;5489883;26;19990;-70
2024/04/17 12:21:03;;;;;;;1.05;0.60;;;9.80;99.90;;;;;;5483347;26;20003;-69
2024/04/17 12:23:30;;;;;;;2.80;0.65;;;9.80;99.90;;;;;;5489093;26;20021;-69
2024/04/17 12:28:40;;;;;;;0.63;0.57;;;9.50;99.90;;;;;;5490706;26;20009;-68
2024/04/17 12:31:05;;;;;;;3.97;0.80;;;9.30;99.90;;;;;;5491900;26;20002;-69
2024/04/17 12:33:31;;;;;;;1.15;0.70;;;9.20;99.90;;;;;;5487950;26;20013;-68
2024/04/17 12:35:57;;;;;;;1.52;0.70;;;9.10;99.90;;;;;;5492794;26;19994;-68
2024/04/17 12:38:22;;;;;;;3.00;1.10;;;9.00;99.90;;;;;;5489205;26;19995;-68
2024/04/17 12:40:48;;;;;;;2.90;1.10;;;9.00;99.90;;;;;;5490312;26;20008;-68
2024/04/17 12:43:16;;;;;;;5.05;1.33;;;9.00;99.90;;;;;;5495419;26;20471;-68
2024/04/17 12:45:41;;;;;;;4.25;1.70;;;9.10;99.90;;;;;;5498584;26;20028;-68
2024/04/17 12:48:10;;;;;;;2.47;1.00;;;9.00;99.90;;;;;;5493055;26;19998;-68
2024/04/17 12:50:36;;;;;;;2.90;0.80;;;9.10;99.90;;;;;;5497506;26;20854;-68